Time;durP1;ratioP1;P1;durP2;ratioP2;P2;SDS_P1;SDS_P2;PMS_P1;PMS_P2;Temp;Humidity;BMP_temperature;BMP_pressure;BME280_temperature;BME280_humidity;BME280_pressure;Samples;Min_cycle;Max_cycle;Signal;HPM_P1;HPM_P2
2021/01/13 00:02:09;;;;;;;17.20;12.47;;;-0.50;99.90;;;;;;5079425;28;20384;-73
2021/01/13 00:04:35;;;;;;;15.73;11.88;;;;;;;;;;5085934;28;20857;-73
2021/01/13 00:07:01;;;;;;;15.98;11.85;;;;;;;;;;5081533;28;20380;-73
2021/01/13 00:09:27;;;;;;;14.07;11.60;;;;;;;;;;5082104;28;20463;-73
2021/01/13 00:11:57;;;;;;;16.75;12.85;;;0.10;99.90;;;;;;5082104;28;20831;-73
2021/01/13 00:14:26;;;;;;;18.00;13.73;;;-0.30;99.90;;;;;;5082572;28;20378;-73
2021/01/13 00:16:52;;;;;;;21.47;14.37;;;-0.20;99.90;;;;;;5079606;28;20413;-73
2021/01/13 00:19:21;;;;;;;21.20;14.83;;;0.50;99.90;;;;;;5081980;28;20393;-73
2021/01/13 00:21:49;;;;;;;20.42;14.95;;;-0.30;99.90;;;;;;5070696;28;20978;-73
2021/01/13 00:24:14;;;;;;;19.88;15.93;;;0.40;99.90;;;;;;5081115;28;20378;-73
2021/01/13 00:26:40;;;;;;;22.25;15.15;;;0.50;99.90;;;;;;5082196;28;20400;-73
2021/01/13 00:29:07;;;;;;;20.40;15.18;;;-0.50;99.90;;;;;;5084060;28;20380;-73
2021/01/13 00:31:32;;;;;;;23.47;16.97;;;-0.80;99.90;;;;;;5080714;28;20387;-73
2021/01/13 00:33:58;;;;;;;21.42;16.00;;;;;;;;;;5084431;28;20387;-74
2021/01/13 00:36:26;;;;;;;20.45;15.93;;;0.20;99.90;;;;;;5070649;28;20771;-74
2021/01/13 00:38:52;;;;;;;21.30;15.55;;;;;;;;;;5072388;28;20371;-74
2021/01/13 00:41:18;;;;;;;24.85;17.13;;;;;;;;;;5090921;28;20367;-74
2021/01/13 00:43:45;;;;;;;26.85;18.40;;;0.40;99.90;;;;;;5090931;28;20459;-74
2021/01/13 00:46:10;;;;;;;24.58;16.92;;;-0.30;99.90;;;;;;5090683;28;20779;-74
2021/01/13 00:48:36;;;;;;;20.17;15.13;;;;;;;;;;5091019;28;20474;-74
2021/01/13 00:51:03;;;;;;;22.42;17.23;;;-0.30;99.90;;;;;;5090701;28;20405;-74
2021/01/13 00:53:28;;;;;;;20.42;14.93;;;0.50;99.90;;;;;;5090783;28;20386;-74
2021/01/13 00:55:54;;;;;;;23.00;16.80;;;;;;;;;;5090884;28;20409;-74
2021/01/13 00:58:23;;;;;;;19.20;13.97;;;0.10;99.90;;;;;;5090873;28;20427;-73
2021/01/13 01:00:49;;;;;;;17.60;12.57;;;;;;;;;;5090597;28;20739;-73
2021/01/13 01:03:14;;;;;;;18.95;13.00;;;;;;;;;;5090621;28;20435;-73
2021/01/13 01:05:40;;;;;;;17.58;12.70;;;0.30;99.90;;;;;;5090741;28;20443;-74
2021/01/13 01:08:06;;;;;;;19.37;14.10;;;;;;;;;;5090701;28;20385;-73
2021/01/13 01:10:33;;;;;;;20.58;14.63;;;;;;;;;;5090668;28;20378;-73
2021/01/13 01:12:59;;;;;;;22.70;14.95;;;;;;;;;;5090529;28;20382;-73
2021/01/13 01:15:25;;;;;;;23.27;15.90;;;0.40;99.90;;;;;;5090459;28;20883;-74
2021/01/13 01:17:51;;;;;;;21.85;14.80;;;-0.10;99.90;;;;;;5090615;28;20876;-73
2021/01/13 01:20:18;;;;;;;17.83;13.30;;;0.20;99.90;;;;;;5090708;28;20431;-73
2021/01/13 01:22:57;;;;;;;20.05;14.93;;;;;;;;;;5090224;28;20385;-73
2021/01/13 01:25:25;;;;;;;24.05;16.20;;;0.30;99.90;;;;;;5090585;28;20379;-73
2021/01/13 01:27:53;;;;;;;26.75;16.67;;;;;;;;;;5086229;28;20483;-73
2021/01/13 01:30:19;;;;;;;21.15;15.20;;;;;;;;;;5070400;28;20407;-74
2021/01/13 01:32:45;;;;;;;26.20;16.88;;;;;;;;;;5070088;28;20387;-74
2021/01/13 01:35:12;;;;;;;27.42;17.38;;;;;;;;;;5070173;28;20372;-74
2021/01/13 01:37:38;;;;;;;27.38;18.35;;;-0.50;99.90;;;;;;5074287;28;20378;-74
2021/01/13 01:40:05;;;;;;;24.73;17.40;;;;;;;;;;5090486;28;20930;-73
2021/01/13 01:42:31;;;;;;;27.75;17.77;;;0.30;99.90;;;;;;5076522;28;20374;-73
2021/01/13 01:44:57;;;;;;;22.55;16.95;;;0.30;99.90;;;;;;5090505;28;20382;-73
2021/01/13 01:47:41;;;;;;;24.20;17.73;;;;;;;;;;5090406;28;20430;-73
2021/01/13 01:50:08;;;;;;;31.43;19.57;;;;;;;;;;5090253;28;20431;-74
2021/01/13 01:52:36;;;;;;;25.97;19.67;;;;;;;;;;5089970;28;20460;-73
2021/01/13 01:55:04;;;;;;;30.90;19.70;;;-0.60;99.90;;;;;;5090218;28;20371;-74
2021/01/13 01:57:35;;;;;;;30.13;19.20;;;0.30;99.90;;;;;;5090343;28;20869;-73
2021/01/13 02:00:02;;;;;;;24.38;17.48;;;0.50;99.90;;;;;;5092864;28;20374;-73
2021/01/13 02:02:36;;;;;;;27.65;18.77;;;0.40;99.90;;;;;;5073518;28;20857;-73
2021/01/13 02:05:03;;;;;;;29.58;19.92;;;0.20;99.90;;;;;;5073805;28;20536;-73
2021/01/13 02:07:33;;;;;;;28.30;17.85;;;0.10;99.90;;;;;;5073681;28;20402;-73
2021/01/13 02:10:00;;;;;;;25.87;16.97;;;;;;;;;;5073798;28;20398;-73
2021/01/13 02:12:28;;;;;;;23.73;17.25;;;-0.30;99.90;;;;;;5083554;28;20396;-74
2021/01/13 02:14:55;;;;;;;21.65;14.95;;;;;;;;;;5076776;28;20395;-74
2021/01/13 02:17:29;;;;;;;23.40;15.52;;;;;;;;;;5073575;28;20803;-75
2021/01/13 02:20:05;;;;;;;20.83;15.48;;;0.30;99.90;;;;;;5073497;28;20368;-74
2021/01/13 02:22:37;;;;;;;23.08;16.30;;;;;;;;;;5085852;28;20382;-74
2021/01/13 02:25:11;;;;;;;19.42;12.27;;;0.00;99.90;;;;;;5087069;28;20406;-73
2021/01/13 02:28:01;;;;;;;21.55;14.73;;;-0.30;99.90;;;;;;5073468;28;20392;-72
2021/01/13 02:30:41;;;;;;;17.58;11.75;;;0.40;99.90;;;;;;5073354;28;20387;-72
2021/01/13 02:33:24;;;;;;;14.45;10.85;;;0.20;99.90;;;;;;5073187;28;20513;-72
2021/01/13 02:36:16;;;;;;;16.55;11.35;;;0.50;99.90;;;;;;5073039;28;20414;-72
2021/01/13 02:38:44;;;;;;;15.73;11.07;;;0.10;99.90;;;;;;5073206;28;20394;-73
2021/01/13 02:41:17;;;;;;;17.33;11.10;;;;;;;;;;5073036;28;20877;-74
2021/01/13 02:43:57;;;;;;;17.13;11.70;;;-0.60;99.90;;;;;;5072999;28;20861;-73
2021/01/13 02:46:42;;;;;;;16.55;10.50;;;;;;;;;;5073110;28;20729;-74
2021/01/13 02:49:12;;;;;;;14.10;10.25;;;0.40;99.90;;;;;;5072936;28;20386;-74
2021/01/13 02:51:40;;;;;;;15.93;9.85;;;;;;;;;;5085312;28;20374;-73
2021/01/13 02:54:20;;;;;;;17.70;11.20;;;;;;;;;;5093568;28;20382;-73
2021/01/13 02:56:52;;;;;;;15.77;10.65;;;0.50;99.90;;;;;;5079339;28;20498;-74
2021/01/13 02:59:18;;;;;;;17.67;11.10;;;;;;;;;;5093337;28;20400;-74
2021/01/13 03:01:44;;;;;;;17.30;12.52;;;-0.70;99.90;;;;;;5077512;28;20371;-75
2021/01/13 03:04:12;;;;;;;21.02;12.75;;;0.50;99.90;;;;;;5072914;28;20376;-75
2021/01/13 03:06:43;;;;;;;16.80;10.95;;;0.10;99.90;;;;;;5088551;28;20389;-75
2021/01/13 03:09:10;;;;;;;18.33;12.57;;;0.10;99.90;;;;;;5092784;28;20872;-75
2021/01/13 03:11:37;;;;;;;18.00;11.65;;;0.30;99.90;;;;;;5076150;28;20391;-75
2021/01/13 03:14:25;;;;;;;20.60;13.48;;;0.10;99.90;;;;;;5072666;28;20409;-75
2021/01/13 03:17:08;;;;;;;19.92;13.20;;;0.40;99.90;;;;;;5072386;28;20408;-75
2021/01/13 03:20:09;;;;;;;20.60;14.10;;;0.50;99.90;;;;;;5072644;28;20428;-75
2021/01/13 03:22:51;;;;;;;25.60;15.03;;;;;;;;;;5072452;28;20375;-75
2021/01/13 03:25:18;;;;;;;25.10;14.75;;;;;;;;;;5072434;28;20415;-75
2021/01/13 03:27:45;;;;;;;26.00;15.70;;;;;;;;;;5072388;28;20367;-75
2021/01/13 03:30:12;;;;;;;26.20;16.15;;;0.50;99.90;;;;;;5072298;28;20380;-74
2021/01/13 03:32:38;;;;;;;27.10;17.35;;;;;;;;;;5071915;28;20395;-74
2021/01/13 03:35:09;;;;;;;24.42;16.95;;;;;;;;;;5072215;28;20367;-74
2021/01/13 03:37:58;;;;;;;28.10;17.27;;;-0.40;99.90;;;;;;5071904;28;20406;-74
2021/01/13 03:40:27;;;;;;;27.77;17.65;;;-0.40;99.90;;;;;;5085570;28;20378;-74
2021/01/13 03:42:54;;;;;;;25.65;17.40;;;-0.10;99.90;;;;;;5071775;28;20391;-74
2021/01/13 03:45:32;;;;;;;25.42;16.88;;;0.60;99.90;;;;;;5071896;28;20376;-74
2021/01/13 03:48:03;;;;;;;21.73;14.30;;;;;;;;;;5071958;28;20379;-74
2021/01/13 03:50:39;;;;;;;26.97;15.83;;;;;;;;;;5071876;28;20376;-74
2021/01/13 03:53:09;;;;;;;25.08;16.02;;;;;;;;;;5071581;28;20394;-74
2021/01/13 03:55:39;;;;;;;23.73;15.20;;;-0.40;99.90;;;;;;5071665;28;20418;-74
2021/01/13 03:58:08;;;;;;;22.92;15.13;;;0.00;99.90;;;;;;5071777;28;20861;-74
2021/01/13 04:00:59;;;;;;;23.05;14.55;;;0.00;99.90;;;;;;5071605;28;20423;-73
2021/01/13 04:03:42;;;;;;;25.13;14.80;;;0.00;99.90;;;;;;5071463;28;20860;-72
2021/01/13 04:06:09;;;;;;;20.48;11.55;;;;;;;;;;5071577;28;20394;-73
2021/01/13 04:08:46;;;;;;;21.13;12.45;;;0.30;99.90;;;;;;5071366;28;20371;-74
2021/01/13 04:11:14;;;;;;;16.67;9.75;;;-0.40;99.90;;;;;;5071246;28;20384;-74
2021/01/13 04:13:44;;;;;;;17.30;10.63;;;0.40;99.90;;;;;;5071216;28;20379;-74
2021/01/13 04:16:11;;;;;;;18.75;10.15;;;0.40;99.90;;;;;;5070998;28;20403;-73
2021/01/13 04:18:38;;;;;;;19.30;10.95;;;;;;;;;;5071247;28;20422;-74
2021/01/13 04:21:06;;;;;;;18.50;10.75;;;-0.20;99.90;;;;;;5085646;28;20381;-74
2021/01/13 04:23:32;;;;;;;19.23;11.30;;;0.30;99.90;;;;;;5091314;28;20477;-74
2021/01/13 04:25:58;;;;;;;19.63;11.00;;;-0.40;99.90;;;;;;5091301;28;20498;-74
2021/01/13 04:28:25;;;;;;;22.73;12.27;;;0.50;99.90;;;;;;5091397;28;20473;-75
2021/01/13 04:30:51;;;;;;;21.73;12.13;;;;;;;;;;5075500;28;20385;-74
2021/01/13 04:33:17;;;;;;;20.45;12.98;;;-0.30;99.90;;;;;;5070986;28;20418;-74
2021/01/13 04:35:42;;;;;;;24.17;12.83;;;0.30;99.90;;;;;;5070789;28;20443;-74
2021/01/13 04:38:10;;;;;;;21.35;11.20;;;;;;;;;;5070984;28;20384;-74
2021/01/13 04:40:40;;;;;;;23.27;12.70;;;-0.40;99.90;;;;;;5070781;28;20379;-74
2021/01/13 04:43:08;;;;;;;21.50;13.60;;;0.40;99.90;;;;;;5080493;28;20378;-74
2021/01/13 04:45:47;;;;;;;19.73;11.27;;;-0.50;99.90;;;;;;5090941;28;20374;-74
2021/01/13 04:48:20;;;;;;;22.00;12.50;;;0.50;99.90;;;;;;5090934;28;20449;-74
2021/01/13 04:50:50;;;;;;;18.10;12.00;;;;;;;;;;5090780;28;20434;-74
2021/01/13 04:53:21;;;;;;;18.25;11.35;;;-0.30;99.90;;;;;;5077630;28;20422;-74
2021/01/13 04:55:48;;;;;;;19.50;12.13;;;;;;;;;;5065126;28;20402;-73
2021/01/13 04:58:20;;;;;;;20.52;12.45;;;;;;;;;;5090846;28;20866;-72
2021/01/13 05:01:05;;;;;;;19.13;11.55;;;-0.10;99.90;;;;;;5090571;28;20381;-73
2021/01/13 05:03:40;;;;;;;19.02;10.45;;;-0.60;99.90;;;;;;5090583;28;20377;-73
2021/01/13 05:06:38;;;;;;;18.35;10.43;;;0.40;99.90;;;;;;5090774;28;20393;-75
2021/01/13 05:09:10;;;;;;;19.10;10.70;;;-0.10;99.90;;;;;;5090581;28;20417;-74
2021/01/13 05:11:44;;;;;;;15.97;10.40;;;0.10;99.90;;;;;;5072924;28;20395;-73
2021/01/13 05:14:11;;;;;;;18.50;10.13;;;-0.10;99.90;;;;;;5070497;28;20406;-73
2021/01/13 05:17:00;;;;;;;16.65;9.20;;;;;;;;;;5070189;28;20411;-73
2021/01/13 05:19:32;;;;;;;19.52;10.05;;;0.60;99.90;;;;;;5070061;28;20497;-73
2021/01/13 05:21:59;;;;;;;16.27;9.30;;;-0.50;99.90;;;;;;5070114;28;20380;-74
2021/01/13 05:24:26;;;;;;;16.38;10.55;;;;;;;;;;5070305;28;20395;-74
2021/01/13 05:26:59;;;;;;;19.00;10.90;;;-0.40;99.90;;;;;;5070334;28;20383;-74
2021/01/13 05:29:36;;;;;;;17.83;10.90;;;0.00;99.90;;;;;;5070242;28;20392;-74
2021/01/13 05:32:03;;;;;;;18.30;10.73;;;0.40;99.90;;;;;;5071072;28;20387;-74
2021/01/13 05:34:35;;;;;;;25.77;12.17;;;-0.40;99.90;;;;;;5074287;28;20384;-75
2021/01/13 05:37:15;;;;;;;24.42;13.02;;;;;;;;;;5074231;28;20408;-73
2021/01/13 05:39:42;;;;;;;18.98;11.05;;;-0.20;99.90;;;;;;5062065;28;20456;-73
2021/01/13 05:42:09;;;;;;;20.10;11.32;;;0.10;99.90;;;;;;5073928;28;20379;-74
2021/01/13 05:44:35;;;;;;;18.85;10.80;;;;;;;;;;5074157;28;20419;-74
2021/01/13 05:47:02;;;;;;;20.87;11.43;;;-0.40;99.90;;;;;;5075334;28;20880;-74
2021/01/13 05:49:29;;;;;;;20.70;11.35;;;0.10;99.90;;;;;;5094280;28;20431;-72
2021/01/13 05:52:03;;;;;;;20.58;11.30;;;-0.10;99.90;;;;;;5094092;28;20874;-74
2021/01/13 05:54:31;;;;;;;17.55;10.77;;;0.50;99.90;;;;;;5094366;28;20382;-74
2021/01/13 05:56:57;;;;;;;15.93;11.23;;;;;;;;;;5094219;28;20401;-74
2021/01/13 05:59:28;;;;;;;20.33;11.82;;;-0.40;99.90;;;;;;5094187;28;20376;-74
2021/01/13 06:01:58;;;;;;;21.75;11.65;;;-0.30;99.90;;;;;;5094003;28;20406;-73
2021/01/13 06:04:25;;;;;;;21.08;13.48;;;;;;;;;;5083243;28;20383;-73
2021/01/13 06:06:57;;;;;;;24.23;15.57;;;-0.60;99.90;;;;;;5073886;28;20387;-73
2021/01/13 06:09:23;;;;;;;22.98;15.00;;;0.50;99.90;;;;;;5073859;28;20387;-73
2021/01/13 06:11:52;;;;;;;29.17;17.95;;;0.00;99.90;;;;;;5073556;28;20449;-74
2021/01/13 06:14:23;;;;;;;29.23;18.33;;;;;;;;;;5073606;28;20437;-73
2021/01/13 06:16:51;;;;;;;23.48;14.25;;;0.30;99.90;;;;;;5093129;28;20406;-74
2021/01/13 06:19:18;;;;;;;24.52;15.27;;;;;;;;;;5093851;28;20389;-73
2021/01/13 06:21:45;;;;;;;22.55;15.02;;;-0.50;99.90;;;;;;5093527;28;20378;-73
2021/01/13 06:24:12;;;;;;;25.65;15.57;;;-0.20;99.90;;;;;;5093791;28;20453;-73
2021/01/13 06:26:50;;;;;;;27.40;14.93;;;-1.10;99.90;;;;;;5093726;28;20385;-73
2021/01/13 06:29:38;;;;;;;25.58;16.25;;;-0.60;99.90;;;;;;5091285;28;20386;-73
2021/01/13 06:32:16;;;;;;;29.02;16.15;;;-0.80;99.90;;;;;;5073479;28;20478;-73
2021/01/13 06:34:53;;;;;;;30.70;17.02;;;;;;;;;;5073181;28;20394;-73
2021/01/13 06:37:30;;;;;;;29.63;20.83;;;-0.80;99.90;;;;;;5072785;28;20413;-73
2021/01/13 06:39:56;;;;;;;34.63;25.20;;;-0.30;99.90;;;;;;5073191;28;20380;-73
2021/01/13 06:42:31;;;;;;;36.42;20.88;;;;;;;;;;5072785;28;20533;-73
2021/01/13 06:44:57;;;;;;;42.10;28.48;;;;;;;;;;5072335;28;20433;-73
2021/01/13 06:47:24;;;;;;;39.33;26.98;;;;;;;;;;5072190;28;20387;-73
2021/01/13 06:49:51;;;;;;;35.05;21.83;;;-0.50;99.90;;;;;;5073003;28;20375;-73
2021/01/13 06:52:30;;;;;;;32.80;20.00;;;-0.90;99.90;;;;;;5072594;28;20471;-73
2021/01/13 06:54:58;;;;;;;33.28;22.85;;;-1.20;99.90;;;;;;5072954;28;20379;-73
2021/01/13 06:57:30;;;;;;;37.65;24.42;;;;;;;;;;5072866;28;20761;-73
2021/01/13 06:59:58;;;;;;;35.70;21.73;;;-1.00;99.90;;;;;;5072835;28;20383;-73
2021/01/13 07:02:34;;;;;;;34.13;22.88;;;-1.10;99.90;;;;;;5071668;28;20380;-73
2021/01/13 07:05:00;;;;;;;35.17;22.48;;;-1.20;99.90;;;;;;5073237;28;20477;-73
2021/01/13 07:07:26;;;;;;;43.05;24.80;;;;;;;;;;5092977;28;20413;-72
2021/01/13 07:09:52;;;;;;;48.00;28.63;;;;;;;;;;5092829;28;20435;-73
2021/01/13 07:12:21;;;;;;;45.40;27.25;;;-1.10;99.90;;;;;;5092517;28;20891;-73
2021/01/13 07:14:49;;;;;;;48.40;26.83;;;-1.10;99.90;;;;;;5092625;28;20393;-73
2021/01/13 07:17:16;;;;;;;41.05;22.50;;;;;;;;;;5092695;28;20433;-73
2021/01/13 07:19:47;;;;;;;33.63;19.58;;;;;;;;;;5092565;28;20370;-73
2021/01/13 07:22:15;;;;;;;31.00;19.00;;;-1.20;99.90;;;;;;5092344;28;20362;-73
2021/01/13 07:24:42;;;;;;;29.30;16.70;;;-1.10;99.90;;;;;;5092643;28;20380;-73
2021/01/13 07:27:08;;;;;;;33.83;18.58;;;;;;;;;;5092538;28;20378;-73
2021/01/13 07:29:34;;;;;;;31.70;18.73;;;;;;;;;;5087743;28;20384;-73
2021/01/13 07:32:02;;;;;;;31.25;20.60;;;-1.10;99.90;;;;;;5072011;28;20380;-73
2021/01/13 07:34:31;;;;;;;51.75;28.90;;;-1.10;99.90;;;;;;5072140;28;20392;-73
2021/01/13 07:37:05;;;;;;;33.30;20.30;;;;;;;;;;5071567;28;20934;-73
2021/01/13 07:39:58;;;;;;;39.07;22.37;;;-1.10;99.90;;;;;;5072078;28;20731;-73
2021/01/13 07:42:35;;;;;;;33.72;20.08;;;-0.30;99.90;;;;;;5071639;28;20410;-73
2021/01/13 07:45:15;;;;;;;31.65;19.15;;;-1.00;99.90;;;;;;5071942;28;20387;-73
2021/01/13 07:48:05;;;;;;;36.00;22.63;;;-0.40;99.90;;;;;;5059282;28;20383;-73
2021/01/13 07:50:33;;;;;;;36.70;21.77;;;-0.70;99.90;;;;;;5071807;28;20429;-73
2021/01/13 07:53:03;;;;;;;30.05;18.85;;;-0.60;99.90;;;;;;5071586;28;20392;-72
2021/01/13 07:55:31;;;;;;;30.00;18.52;;;-1.00;99.90;;;;;;5070582;28;20723;-73
2021/01/13 07:57:59;;;;;;;30.05;18.08;;;0.00;99.90;;;;;;5071941;28;20726;-72
2021/01/13 08:00:25;;;;;;;31.05;17.75;;;;;;;;;;5071718;28;20378;-72
2021/01/13 08:03:10;;;;;;;25.42;16.77;;;;;;;;;;5071325;28;20375;-73
2021/01/13 08:06:13;;;;;;;26.75;15.77;;;0.20;99.90;;;;;;5071514;28;20383;-72
2021/01/13 08:09:16;;;;;;;26.58;15.07;;;0.00;99.90;;;;;;5071423;28;20387;-72
2021/01/13 08:11:59;;;;;;;25.23;14.93;;;-0.40;99.90;;;;;;5071024;28;20376;-72
2021/01/13 08:14:43;;;;;;;27.73;17.13;;;0.40;99.90;;;;;;5071374;28;20398;-72
2021/01/13 08:17:46;;;;;;;32.60;17.42;;;-0.20;99.90;;;;;;5071058;28;20407;-73
2021/01/13 08:20:33;;;;;;;23.38;16.10;;;0.00;99.90;;;;;;5071249;28;20412;-72
2021/01/13 08:23:10;;;;;;;24.52;15.15;;;0.40;99.90;;;;;;5071032;28;20457;-73
2021/01/13 08:25:43;;;;;;;25.53;14.17;;;0.50;99.90;;;;;;5071030;28;20380;-72
2021/01/13 08:28:12;;;;;;;26.77;15.60;;;-0.10;99.90;;;;;;5070946;28;20388;-73
2021/01/13 08:30:41;;;;;;;27.00;13.98;;;;;;;;;;5071014;28;20391;-72
2021/01/13 08:33:17;;;;;;;22.23;12.60;;;-0.30;99.90;;;;;;5070962;28;20402;-73
2021/01/13 08:35:47;;;;;;;21.92;12.85;;;-0.10;99.90;;;;;;5070722;28;20394;-72
2021/01/13 08:38:13;;;;;;;23.67;13.18;;;;;;;;;;5070919;28;20379;-72
2021/01/13 08:40:40;;;;;;;22.63;13.13;;;0.10;99.90;;;;;;5070822;28;20911;-73
2021/01/13 08:43:13;;;;;;;21.42;11.75;;;-0.10;99.90;;;;;;5069446;28;20437;-72
2021/01/13 08:45:39;;;;;;;21.67;11.20;;;;;;;;;;5070721;28;20394;-73
2021/01/13 08:48:10;;;;;;;20.17;10.98;;;;;;;;;;5070743;28;20384;-72
2021/01/13 08:50:36;;;;;;;20.48;11.50;;;;;;;;;;5070557;28;20371;-73
2021/01/13 08:53:03;;;;;;;17.70;10.95;;;-0.20;99.90;;;;;;5070665;28;20753;-72
2021/01/13 08:55:29;;;;;;;17.65;9.40;;;;;;;;;;5070466;28;20386;-72
2021/01/13 08:58:06;;;;;;;16.42;8.98;;;0.60;99.90;;;;;;5070646;28;20368;-72
2021/01/13 09:00:33;;;;;;;18.47;8.50;;;0.30;99.90;;;;;;5070581;28;20376;-72
2021/01/13 09:02:59;;;;;;;17.38;8.27;;;;;;;;;;5070370;28;20917;-72
2021/01/13 09:05:38;;;;;;;14.95;8.00;;;0.00;99.90;;;;;;5070461;28;20418;-72
2021/01/13 09:08:06;;;;;;;16.47;8.30;;;0.40;99.90;;;;;;5070102;28;20375;-72
2021/01/13 09:10:46;;;;;;;16.55;8.80;;;0.80;99.90;;;;;;5070463;28;20429;-72
2021/01/13 09:13:34;;;;;;;18.70;8.80;;;0.60;99.90;;;;;;5070407;28;20383;-72
2021/01/13 09:16:26;;;;;;;18.02;9.10;;;0.70;99.90;;;;;;5070258;28;20399;-72
2021/01/13 09:19:04;;;;;;;17.25;8.77;;;0.80;99.90;;;;;;5064368;28;21301;-72
2021/01/13 09:21:34;;;;;;;21.95;10.80;;;;;;;;;;5070062;28;20383;-73
2021/01/13 09:24:01;;;;;;;16.55;9.80;;;;;;;;;;5070216;28;20390;-72
2021/01/13 09:26:34;;;;;;;18.65;9.50;;;0.20;99.90;;;;;;5070336;28;20375;-73
2021/01/13 09:29:06;;;;;;;18.98;9.50;;;0.20;99.90;;;;;;5070435;28;20379;-73
2021/01/13 09:31:32;;;;;;;22.05;11.30;;;;;;;;;;5057588;28;20463;-72
2021/01/13 09:33:58;;;;;;;19.98;11.50;;;;;;;;;;5070184;28;20459;-73
2021/01/13 09:36:25;;;;;;;21.35;10.55;;;0.10;99.90;;;;;;5069870;28;20419;-72
2021/01/13 09:39:10;;;;;;;21.60;11.73;;;0.50;99.90;;;;;;5070163;28;20403;-73
2021/01/13 09:41:40;;;;;;;19.83;10.60;;;0.90;99.90;;;;;;5069999;28;20841;-72
2021/01/13 09:44:11;;;;;;;22.58;11.30;;;;;;;;;;5070201;28;20758;-72
2021/01/13 09:46:39;;;;;;;20.47;11.00;;;1.00;99.90;;;;;;5070069;28;20386;-72
2021/01/13 09:49:06;;;;;;;23.13;12.23;;;0.80;99.90;;;;;;5070070;28;20379;-73
2021/01/13 09:51:33;;;;;;;19.05;11.50;;;0.80;99.90;;;;;;5069744;28;20861;-73
2021/01/13 09:54:01;;;;;;;17.75;9.90;;;0.90;99.90;;;;;;5070062;28;20757;-73
2021/01/13 09:56:27;;;;;;;22.05;9.80;;;0.90;99.90;;;;;;5069954;28;20404;-73
2021/01/13 09:58:53;;;;;;;18.02;10.00;;;1.00;99.90;;;;;;5069920;28;20411;-73
2021/01/13 10:01:20;;;;;;;16.83;9.48;;;0.80;99.90;;;;;;5069779;28;20375;-72
2021/01/13 10:03:48;;;;;;;16.48;9.15;;;1.00;99.90;;;;;;5069869;28;20387;-73
2021/01/13 10:06:22;;;;;;;17.83;9.40;;;0.80;99.90;;;;;;5069938;28;20388;-73
2021/01/13 10:08:49;;;;;;;16.77;8.95;;;0.40;99.90;;;;;;5069863;28;20735;-72
2021/01/13 10:11:15;;;;;;;18.85;10.50;;;;;;;;;;5069761;28;20391;-72
2021/01/13 10:13:43;;;;;;;18.35;9.55;;;0.90;99.90;;;;;;5089812;28;20748;-72
2021/01/13 10:16:11;;;;;;;19.50;11.02;;;0.90;99.90;;;;;;5089861;28;20406;-72
2021/01/13 10:19:17;;;;;;;22.75;12.98;;;;;;;;;;5090512;28;20380;-72
2021/01/13 10:21:50;;;;;;;25.40;14.05;;;1.10;99.90;;;;;;5050815;28;20721;-73
2021/01/13 10:24:17;;;;;;;18.38;10.65;;;;;;;;;;5051124;28;20512;-73
2021/01/13 10:26:43;;;;;;;19.90;11.48;;;;;;;;;;5074070;28;20393;-73
2021/01/13 10:29:10;;;;;;;22.63;11.95;;;;;;;;;;5092465;28;20465;-73
2021/01/13 10:31:36;;;;;;;21.13;13.23;;;1.00;99.90;;;;;;5073101;28;20386;-73
2021/01/13 10:34:02;;;;;;;21.45;10.88;;;0.90;99.90;;;;;;5073290;28;20391;-73
2021/01/13 10:36:40;;;;;;;20.83;9.93;;;0.80;99.90;;;;;;5072953;28;20404;-72
2021/01/13 10:39:15;;;;;;;17.65;9.82;;;0.10;99.90;;;;;;5073101;28;20479;-73
2021/01/13 10:41:49;;;;;;;18.83;10.57;;;0.70;99.90;;;;;;5072895;28;20415;-73
2021/01/13 10:44:16;;;;;;;21.45;12.50;;;;;;;;;;5073156;28;20387;-73
2021/01/13 10:46:46;;;;;;;24.25;13.45;;;;;;;;;;5073216;28;20382;-72
2021/01/13 10:49:39;;;;;;;21.58;13.30;;;0.80;99.90;;;;;;5071718;28;20386;-73
2021/01/13 10:52:06;;;;;;;22.35;13.93;;;;;;;;;;5069983;28;20396;-73
2021/01/13 10:54:34;;;;;;;23.02;15.52;;;0.70;99.90;;;;;;5072909;28;20958;-73
2021/01/13 10:57:08;;;;;;;26.52;14.70;;;0.60;99.90;;;;;;5072138;28;21998;-73
2021/01/13 10:59:35;;;;;;;23.60;13.17;;;;;;;;;;5090411;28;20397;-73
2021/01/13 11:02:06;;;;;;;29.40;17.20;;;1.20;99.90;;;;;;5083150;28;20375;-72
2021/01/13 11:04:37;;;;;;;29.10;17.08;;;0.30;99.90;;;;;;5085381;28;20387;-73
2021/01/13 11:07:03;;;;;;;23.27;14.20;;;;;;;;;;5081933;28;20791;-73
2021/01/13 11:09:29;;;;;;;39.42;23.30;;;0.80;99.90;;;;;;5083743;28;20402;-72
2021/01/13 11:11:55;;;;;;;36.45;23.75;;;1.30;99.90;;;;;;5085490;28;20436;-72
2021/01/13 11:14:49;;;;;;;19.27;12.32;;;0.70;99.90;;;;;;5084115;28;20378;-73
2021/01/13 11:17:29;;;;;;;16.25;9.13;;;;;;;;;;5072515;28;20416;-72
2021/01/13 11:19:57;;;;;;;16.25;8.55;;;0.70;99.90;;;;;;5079716;28;20853;-72
2021/01/13 11:22:48;;;;;;;11.23;6.25;;;;;;;;;;5085559;28;20397;-72
2021/01/13 11:25:23;;;;;;;15.10;6.65;;;0.40;99.90;;;;;;5082975;28;20844;-72
2021/01/13 11:28:09;;;;;;;13.02;6.50;;;0.90;99.90;;;;;;5076860;28;20470;-72
2021/01/13 11:30:39;;;;;;;13.32;6.30;;;1.00;99.90;;;;;;5085893;28;20382;-72
2021/01/13 11:33:07;;;;;;;14.53;6.33;;;1.00;99.90;;;;;;5080400;28;20384;-73
2021/01/13 11:35:44;;;;;;;13.70;6.40;;;0.90;99.90;;;;;;5081893;28;20382;-73
2021/01/13 11:38:12;;;;;;;14.27;6.68;;;1.10;99.90;;;;;;5085462;28;20419;-73
2021/01/13 11:41:05;;;;;;;12.57;7.55;;;1.10;99.90;;;;;;5081025;28;20752;-73
2021/01/13 11:44:04;;;;;;;12.50;6.82;;;1.10;99.90;;;;;;5085168;28;20386;-72
2021/01/13 11:46:30;;;;;;;12.70;6.60;;;;;;;;;;5085397;28;20386;-72
2021/01/13 11:49:20;;;;;;;13.18;6.47;;;0.90;99.90;;;;;;5075067;28;20386;-72
2021/01/13 11:51:48;;;;;;;11.85;7.00;;;;;;;;;;5073468;28;20383;-73
2021/01/13 11:54:30;;;;;;;11.00;6.18;;;1.10;99.90;;;;;;5080123;28;20379;-72
2021/01/13 11:57:14;;;;;;;15.07;6.72;;;1.30;99.90;;;;;;5076328;28;20404;-72
2021/01/13 11:59:40;;;;;;;16.38;7.22;;;;;;;;;;5087156;28;20489;-72
2021/01/13 12:02:09;;;;;;;14.30;6.93;;;1.30;99.90;;;;;;5079715;28;20467;-73
2021/01/13 12:04:45;;;;;;;13.82;7.00;;;;;;;;;;5085775;28;20385;-73
2021/01/13 12:07:12;;;;;;;13.45;6.90;;;1.40;99.90;;;;;;5081887;28;20466;-72
2021/01/13 12:09:37;;;;;;;12.57;7.13;;;1.50;99.90;;;;;;5080671;28;20424;-72
2021/01/13 12:12:04;;;;;;;12.00;6.93;;;;;;;;;;5084135;28;20390;-73
2021/01/13 12:14:43;;;;;;;11.32;6.82;;;1.60;99.90;;;;;;5081483;28;20382;-72
2021/01/13 12:17:09;;;;;;;10.10;6.50;;;1.50;99.90;;;;;;5084214;28;20463;-72
2021/01/13 12:19:39;;;;;;;12.93;6.80;;;1.50;99.90;;;;;;5082483;28;20842;-73
2021/01/13 12:22:05;;;;;;;13.40;7.40;;;1.60;99.90;;;;;;5082746;28;20391;-72
2021/01/13 12:24:42;;;;;;;13.82;6.85;;;1.60;99.90;;;;;;5081242;28;20754;-73
2021/01/13 12:27:20;;;;;;;11.63;6.63;;;;;;;;;;5082969;28;20888;-72
2021/01/13 12:29:46;;;;;;;14.07;6.75;;;1.50;99.90;;;;;;5079830;28;20447;-72
2021/01/13 12:32:11;;;;;;;13.37;7.10;;;1.60;99.90;;;;;;5082707;28;20409;-72
2021/01/13 12:34:37;;;;;;;13.23;6.80;;;;;;;;;;5071562;28;20517;-72
2021/01/13 12:37:06;;;;;;;14.40;7.15;;;1.60;99.90;;;;;;5070993;28;20412;-72
2021/01/13 12:39:35;;;;;;;13.90;7.18;;;1.60;99.90;;;;;;5057953;28;20379;-72
2021/01/13 12:42:04;;;;;;;12.80;7.43;;;1.80;99.90;;;;;;5070198;28;21189;-72
2021/01/13 12:44:30;;;;;;;10.48;7.10;;;2.30;99.90;;;;;;5071084;28;20423;-72
2021/01/13 12:46:56;;;;;;;15.35;7.95;;;;;;;;;;5070992;28;20387;-72
2021/01/13 12:49:22;;;;;;;12.10;6.90;;;1.60;99.90;;;;;;5071012;28;20386;-72
2021/01/13 12:51:52;;;;;;;12.02;7.07;;;2.20;99.90;;;;;;5070658;28;20391;-72
2021/01/13 12:54:19;;;;;;;12.80;8.00;;;2.00;99.90;;;;;;5070842;28;20479;-72
2021/01/13 12:56:45;;;;;;;12.68;7.18;;;;;;;;;;5070919;28;20406;-72
2021/01/13 12:59:11;;;;;;;11.53;7.10;;;1.90;99.90;;;;;;5070806;28;20865;-73
2021/01/13 13:01:38;;;;;;;14.10;6.22;;;;;;;;;;5070514;28;20462;-72
2021/01/13 13:04:04;;;;;;;10.40;6.65;;;1.70;99.90;;;;;;5070685;28;20380;-72
2021/01/13 13:06:33;;;;;;;12.77;6.70;;;2.40;99.90;;;;;;5070835;28;20464;-72
2021/01/13 13:09:00;;;;;;;11.57;6.20;;;;;;;;;;5070647;28;20873;-71
2021/01/13 13:11:27;;;;;;;10.45;5.90;;;1.90;99.90;;;;;;5086425;28;20374;-72
2021/01/13 13:13:53;;;;;;;9.50;5.70;;;2.30;99.90;;;;;;5090942;28;20382;-71
2021/01/13 13:16:19;;;;;;;12.57;5.93;;;;;;;;;;5090609;28;20411;-72
2021/01/13 13:18:46;;;;;;;11.38;5.95;;;2.10;99.90;;;;;;5090688;28;20807;-72
2021/01/13 13:21:12;;;;;;;11.40;5.90;;;;;;;;;;5090725;28;20693;-72
2021/01/13 13:23:39;;;;;;;9.60;6.10;;;2.00;99.90;;;;;;5090545;28;20378;-72
2021/01/13 13:26:05;;;;;;;12.10;6.18;;;2.00;99.90;;;;;;5090769;28;20382;-72
2021/01/13 13:28:32;;;;;;;11.25;6.30;;;2.00;99.90;;;;;;5090426;28;20438;-71
2021/01/13 13:30:58;;;;;;;10.63;5.95;;;;;;;;;;5073741;28;20392;-72